createdAt,value
2023-06-25T00:01:50.010Z,101727.50
2023-06-25T00:04:16.487Z,101725.69
2023-06-25T00:06:43.135Z,101728.59
2023-06-25T00:09:10.156Z,101731.06
2023-06-25T00:11:36.694Z,101727.91
2023-06-25T00:14:03.724Z,101736.41
2023-06-25T00:16:30.521Z,101734.38
2023-06-25T00:18:57.633Z,101737.84
2023-06-25T00:21:24.445Z,101743.97
2023-06-25T00:23:50.884Z,101735.00
2023-06-25T00:26:17.340Z,101737.69
2023-06-25T00:28:43.891Z,101737.44
2023-06-25T00:31:15.122Z,101737.22
2023-06-25T00:33:44.715Z,101724.53
2023-06-25T00:36:11.236Z,101729.31
2023-06-25T00:38:40.205Z,101726.50
2023-06-25T00:41:09.687Z,101719.66
2023-06-25T00:43:42.600Z,101724.47
2023-06-25T00:46:13.795Z,101726.34
2023-06-25T00:48:47.633Z,101726.09
2023-06-25T00:51:15.722Z,101720.63
2023-06-25T00:53:42.649Z,101720.63
2023-06-25T00:56:09.096Z,101716.69
2023-06-25T00:58:39.477Z,101728.31
2023-06-25T01:01:28.034Z,101715.44
2023-06-25T01:04:01.457Z,101715.72
2023-06-25T01:06:36.705Z,101721.88
2023-06-25T01:09:04.103Z,101716.38
2023-06-25T01:11:30.814Z,101711.09
2023-06-25T01:13:57.521Z,101708.19
2023-06-25T01:16:24.724Z,101702.66
2023-06-25T01:19:03.961Z,101713.03
2023-06-25T01:21:32.252Z,101717.50
2023-06-25T01:23:59.363Z,101713.34
2023-06-25T01:26:25.904Z,101709.63
2023-06-25T01:28:56.823Z,101707.81
2023-06-25T01:31:25.712Z,101712.88
2023-06-25T01:33:52.626Z,101707.34
2023-06-25T01:36:19.353Z,101710.03
2023-06-25T01:38:45.839Z,101701.34
2023-06-25T01:41:12.364Z,101709.53
2023-06-25T01:43:39.108Z,101708.50
2023-06-25T01:46:05.672Z,101705.91
2023-06-25T01:48:32.231Z,101706.97
2023-06-25T01:50:59.228Z,101696.44
2023-06-25T01:53:26.521Z,101698.88
2023-06-25T01:55:53.583Z,101700.69
2023-06-25T01:58:20.278Z,101695.97
2023-06-25T02:00:46.832Z,101700.75
2023-06-25T02:03:15.992Z,101692.34
2023-06-25T02:05:43.258Z,101689.19
2023-06-25T02:08:09.983Z,101690.00
2023-06-25T02:10:37.158Z,101686.59
2023-06-25T02:13:03.652Z,101691.34
2023-06-25T02:15:30.930Z,101694.00
2023-06-25T02:17:57.456Z,101689.28
2023-06-25T02:20:24.003Z,101688.78
2023-06-25T02:22:51.414Z,101682.72
2023-06-25T02:25:17.934Z,101682.50
2023-06-25T02:27:44.443Z,101679.06
2023-06-25T02:30:11.624Z,101680.41
2023-06-25T02:32:38.819Z,101673.81
2023-06-25T02:35:05.741Z,101682.81
2023-06-25T02:37:32.602Z,101678.34
2023-06-25T02:39:59.054Z,101673.38
2023-06-25T02:42:25.645Z,101677.06
2023-06-25T02:44:52.105Z,101673.91
2023-06-25T02:47:18.873Z,101681.59
2023-06-25T02:49:45.441Z,101675.28
2023-06-25T02:52:12.389Z,101667.91
2023-06-25T02:54:39.326Z,101663.16
2023-06-25T02:57:05.906Z,101668.75
2023-06-25T02:59:32.535Z,101664.00
2023-06-25T03:01:59.683Z,101666.91
2023-06-25T03:04:26.195Z,101665.09
2023-06-25T03:06:52.797Z,101672.25
2023-06-25T03:09:19.439Z,101662.50
2023-06-25T03:11:45.960Z,101665.69
2023-06-25T03:14:18.968Z,101670.69
2023-06-25T03:16:56.218Z,101663.88
2023-06-25T03:19:22.816Z,101656.22
2023-06-25T03:21:49.301Z,101658.91
2023-06-25T03:24:16.443Z,101656.25
2023-06-25T03:26:43.085Z,101651.25
2023-06-25T03:29:09.792Z,101648.09
2023-06-25T03:31:36.317Z,101644.94
2023-06-25T03:34:05.274Z,101647.59
2023-06-25T03:36:32.699Z,101656.84
2023-06-25T03:38:59.289Z,101647.09
2023-06-25T03:41:26.962Z,101651.34
2023-06-25T03:43:54.176Z,101652.41
2023-06-25T03:46:20.869Z,101646.31
2023-06-25T03:48:48.940Z,101646.06
2023-06-25T03:51:15.514Z,101653.47
2023-06-25T03:53:44.373Z,101652.41
2023-06-25T03:56:11.005Z,101650.56
2023-06-25T03:58:37.751Z,101650.31
2023-06-25T04:01:04.394Z,101650.88
2023-06-25T04:03:30.962Z,101645.59
2023-06-25T04:05:57.455Z,101648.50
2023-06-25T04:08:23.940Z,101654.84
2023-06-25T04:10:52.193Z,101644.00
2023-06-25T04:13:18.824Z,101639.50
2023-06-25T04:15:45.386Z,101646.91
2023-06-25T04:18:11.858Z,101649.56
2023-06-25T04:20:38.285Z,101642.41
2023-06-25T04:23:04.979Z,101649.81
2023-06-25T04:25:32.237Z,101649.81
2023-06-25T04:27:59.248Z,101640.88
2023-06-25T04:30:26.136Z,101644.00
2023-06-25T04:32:54.382Z,101639.50
2023-06-25T04:35:22.106Z,101637.97
2023-06-25T04:37:48.753Z,101645.59
2023-06-25T04:40:15.419Z,101639.50
2023-06-25T04:42:42.221Z,101641.34
2023-06-25T04:45:09.371Z,101642.16
2023-06-25T04:47:35.929Z,101651.66
2023-06-25T04:50:03.258Z,101634.50
2023-06-25T04:52:30.507Z,101645.59
2023-06-25T04:54:56.959Z,101646.06
2023-06-25T04:57:23.446Z,101633.16
2023-06-25T04:59:50.366Z,101635.53
2023-06-25T05:02:16.961Z,101640.25
2023-06-25T05:04:45.153Z,101641.03
2023-06-25T05:07:13.352Z,101646.06
2023-06-25T05:09:39.820Z,101641.84
2023-06-25T05:12:06.743Z,101645.28
2023-06-25T05:14:33.219Z,101637.38
2023-06-25T05:16:59.664Z,101636.03
2023-06-25T05:19:26.139Z,101639.72
2023-06-25T05:21:52.640Z,101645.00
2023-06-25T05:24:19.301Z,101655.56
2023-06-25T05:26:46.359Z,101645.53
2023-06-25T05:29:12.816Z,101641.28
2023-06-25T05:31:39.462Z,101643.66
2023-06-25T05:34:06.177Z,101648.94
2023-06-25T05:36:32.671Z,101647.59
2023-06-25T05:38:59.144Z,101650.50
2023-06-25T05:41:25.596Z,101643.34
2023-06-25T05:43:52.155Z,101640.97
2023-06-25T05:46:18.747Z,101638.28
2023-06-25T05:48:45.633Z,101639.88
2023-06-25T05:51:12.195Z,101638.81
2023-06-25T05:53:41.190Z,101630.56
2023-06-25T05:56:08.421Z,101633.72
2023-06-25T05:58:35.896Z,101625.25
2023-06-25T06:01:03.032Z,101625.50
2023-06-25T06:03:29.532Z,101620.50
2023-06-25T06:05:58.285Z,101626.78
2023-06-25T06:08:25.587Z,101627.00
2023-06-25T06:10:52.131Z,101627.53
2023-06-25T06:13:18.630Z,101624.31
2023-06-25T06:15:45.059Z,101627.44
2023-06-25T06:18:12.820Z,101625.03
2023-06-25T06:20:39.371Z,101621.59
2023-06-25T06:23:05.840Z,101628.69
2023-06-25T06:25:32.537Z,101629.47
2023-06-25T06:27:58.981Z,101626.25
2023-06-25T06:30:25.425Z,101634.44
2023-06-25T06:32:51.903Z,101627.53
2023-06-25T06:35:18.565Z,101625.44
2023-06-25T06:37:45.012Z,101630.16
2023-06-25T06:40:11.607Z,101626.41
2023-06-25T06:42:38.046Z,101629.53
2023-06-25T06:45:05.084Z,101625.00
2023-06-25T06:47:31.605Z,101624.72
2023-06-25T06:49:59.640Z,101617.81
2023-06-25T06:52:26.977Z,101615.94
2023-06-25T06:54:53.492Z,101605.84
2023-06-25T06:57:19.959Z,101616.09
2023-06-25T06:59:46.557Z,101617.34
2023-06-25T07:02:13.032Z,101606.53
2023-06-25T07:04:40.093Z,101611.72
2023-06-25T07:07:07.176Z,101603.22
2023-06-25T07:09:33.698Z,101612.19
2023-06-25T07:12:00.194Z,101606.84
2023-06-25T07:14:26.703Z,101606.25
2023-06-25T07:16:53.211Z,101606.69
2023-06-25T07:19:19.687Z,101601.91
2023-06-25T07:21:46.121Z,101596.00
2023-06-25T07:24:13.007Z,101602.31
2023-06-25T07:26:39.471Z,101605.66
2023-06-25T07:29:05.952Z,101603.25
2023-06-25T07:31:32.438Z,101597.91
2023-06-25T07:33:58.947Z,101598.91
2023-06-25T07:36:25.401Z,101595.41
2023-06-25T07:38:51.979Z,101597.97
2023-06-25T07:41:18.460Z,101589.25
2023-06-25T07:43:44.907Z,101588.38
2023-06-25T07:46:11.519Z,101579.84
2023-06-25T07:48:37.994Z,101583.47
2023-06-25T07:51:04.523Z,101585.06
2023-06-25T07:53:30.978Z,101593.13
2023-06-25T07:56:02.811Z,101587.31
2023-06-25T07:58:30.393Z,101587.78
2023-06-25T08:00:56.948Z,101585.09
2023-06-25T08:03:23.640Z,101586.34
2023-06-25T08:05:50.324Z,101586.81
2023-06-25T08:08:16.779Z,101587.25
2023-06-25T08:10:43.386Z,101591.97
2023-06-25T08:13:09.967Z,101587.19
2023-06-25T08:15:36.744Z,101581.56
2023-06-25T08:18:03.382Z,101587.28
2023-06-25T08:20:32.131Z,101583.59
2023-06-25T08:22:58.602Z,101581.16
2023-06-25T08:25:27.432Z,101578.69
2023-06-25T08:27:53.951Z,101584.72
2023-06-25T08:30:20.448Z,101582.28
2023-06-25T08:32:47.010Z,101583.88
2023-06-25T08:35:13.793Z,101569.53
2023-06-25T08:37:40.242Z,101571.56
2023-06-25T08:40:07.220Z,101577.03
2023-06-25T08:42:33.804Z,101576.72
2023-06-25T08:45:00.360Z,101558.44
2023-06-25T08:47:30.631Z,101564.16
2023-06-25T08:49:57.328Z,101568.88
2023-06-25T08:52:25.396Z,101564.28
2023-06-25T08:54:52.133Z,101561.59
2023-06-25T08:57:18.822Z,101561.25
2023-06-25T08:59:45.317Z,101560.13
2023-06-25T09:02:11.915Z,101555.63
2023-06-25T09:04:38.559Z,101556.09
2023-06-25T09:07:09.533Z,101553.59
2023-06-25T09:09:36.097Z,101552.47
2023-06-25T09:12:02.724Z,101545.31
2023-06-25T09:14:31.164Z,101548.69
2023-06-25T09:16:57.977Z,101545.19
2023-06-25T09:19:24.879Z,101553.59
2023-06-25T09:21:51.386Z,101542.38
2023-06-25T09:24:20.316Z,101541.44
2023-06-25T09:26:52.000Z,101548.88
2023-06-25T09:29:20.195Z,101538.97
2023-06-25T09:31:47.982Z,101542.38
2023-06-25T09:34:19.202Z,101533.28
2023-06-25T09:36:46.168Z,101538.56
2023-06-25T09:39:13.409Z,101544.25
2023-06-25T09:41:44.436Z,101530.66
2023-06-25T09:44:11.995Z,101533.03
2023-06-25T09:46:41.510Z,101534.25
2023-06-25T09:49:11.072Z,101538.16
2023-06-25T09:51:56.713Z,101533.31
2023-06-25T09:54:24.642Z,101530.63
2023-06-25T09:56:52.519Z,101526.56
2023-06-25T09:59:19.880Z,101532.84
2023-06-25T10:01:47.480Z,101535.97
2023-06-25T10:04:14.125Z,101524.75
2023-06-25T10:06:41.127Z,101519.09
2023-06-25T10:09:08.267Z,101515.63
2023-06-25T10:11:36.566Z,101512.34
2023-06-25T10:14:05.939Z,101509.63
2023-06-25T10:16:39.079Z,101512.19
2023-06-25T10:19:06.847Z,101511.63
2023-06-25T10:21:33.461Z,101506.00
2023-06-25T10:24:02.398Z,101506.44
2023-06-25T10:26:34.164Z,101509.78
2023-06-25T10:29:02.259Z,101499.66
2023-06-25T10:31:38.636Z,101494.63
2023-06-25T10:34:07.019Z,101494.47
2023-06-25T10:36:34.136Z,101496.25
2023-06-25T10:39:01.292Z,101493.78
2023-06-25T10:41:31.784Z,101488.13
2023-06-25T10:43:59.521Z,101485.41
2023-06-25T10:46:35.822Z,101488.56
2023-06-25T10:49:03.612Z,101482.94
2023-06-25T10:51:30.293Z,101480.78
2023-06-25T10:53:57.691Z,101474.56
2023-06-25T10:56:24.228Z,101469.72
2023-06-25T10:59:00.141Z,101480.47
2023-06-25T11:01:33.304Z,101472.13
2023-06-25T11:04:00.003Z,101477.41
2023-06-25T11:06:26.541Z,101466.69
2023-06-25T11:08:54.777Z,101467.69
2023-06-25T11:11:22.129Z,101468.91
2023-06-25T11:13:49.194Z,101463.81
2023-06-25T11:16:15.748Z,101463.44
2023-06-25T11:18:42.198Z,101464.81
2023-06-25T11:21:09.677Z,101464.66
2023-06-25T11:23:36.131Z,101462.72
2023-06-25T11:26:04.164Z,101466.63
2023-06-25T11:28:30.949Z,101461.19
2023-06-25T11:30:59.557Z,101462.97
2023-06-25T11:33:26.537Z,101461.63
2023-06-25T11:36:06.119Z,101460.47
2023-06-25T11:38:32.718Z,101451.94
2023-06-25T11:40:59.666Z,101453.91
2023-06-25T11:43:27.557Z,101443.97
2023-06-25T11:45:54.632Z,101456.63
2023-06-25T11:48:21.569Z,101452.38
2023-06-25T11:50:50.256Z,101448.28
2023-06-25T11:53:17.169Z,101442.63
2023-06-25T11:55:43.772Z,101437.56
2023-06-25T11:58:11.096Z,101434.84
2023-06-25T12:00:38.092Z,101436.63
2023-06-25T12:03:04.829Z,101438.38
2023-06-25T12:05:31.432Z,101435.66
2023-06-25T12:07:57.878Z,101431.56
2023-06-25T12:10:25.905Z,101424.16
2023-06-25T12:12:53.829Z,101429.03
2023-06-25T12:15:20.560Z,101421.25
2023-06-25T12:17:47.156Z,101422.03
2023-06-25T12:20:13.704Z,101425.16
2023-06-25T12:22:40.148Z,101418.16
2023-06-25T12:25:06.900Z,101421.28
2023-06-25T12:27:33.515Z,101415.03
2023-06-25T12:30:01.993Z,101416.03
2023-06-25T12:32:28.728Z,101412.72
2023-06-25T12:34:55.221Z,101415.06
2023-06-25T12:37:21.716Z,101413.72
2023-06-25T12:39:49.386Z,101406.66
2023-06-25T12:42:15.845Z,101402.00
2023-06-25T12:44:42.317Z,101395.56
2023-06-25T12:47:08.760Z,101390.72
2023-06-25T12:49:35.259Z,101398.34
2023-06-25T12:52:02.448Z,101401.44
2023-06-25T12:54:28.898Z,101390.50
2023-06-25T12:56:55.358Z,101389.56
2023-06-25T12:59:21.809Z,101391.28
2023-06-25T13:01:48.310Z,101388.56
2023-06-25T13:04:14.955Z,101389.53
2023-06-25T13:06:41.725Z,101380.97
2023-06-25T13:09:08.227Z,101372.94
2023-06-25T13:11:35.555Z,101373.34
2023-06-25T13:14:02.198Z,101378.00
2023-06-25T13:16:29.005Z,101375.31
2023-06-25T13:18:55.738Z,101361.03
2023-06-25T13:21:22.256Z,101366.31
2023-06-25T13:23:48.717Z,101369.41
2023-06-25T13:26:15.212Z,101361.63
2023-06-25T13:28:41.713Z,101363.94
2023-06-25T13:31:08.353Z,101350.47
2023-06-25T13:33:34.929Z,101356.91
2023-06-25T13:36:01.467Z,101357.69
2023-06-25T13:38:27.997Z,101348.31
2023-06-25T13:40:54.487Z,101344.03
2023-06-25T13:43:20.942Z,101344.22
2023-06-25T13:45:47.447Z,101340.50
2023-06-25T13:48:14.011Z,101340.28
2023-06-25T13:50:40.520Z,101340.50
2023-06-25T13:53:07.043Z,101339.69
2023-06-25T13:55:33.510Z,101339.31
2023-06-25T13:58:00.502Z,101337.16
2023-06-25T14:00:27.328Z,101333.84
2023-06-25T14:03:10.542Z,101333.25
2023-06-25T14:05:38.531Z,101323.88
2023-06-25T14:08:07.188Z,101331.09
2023-06-25T14:10:34.287Z,101321.94
2023-06-25T14:13:02.365Z,101315.88
2023-06-25T14:15:29.603Z,101318.00
2023-06-25T14:17:56.805Z,101317.41
2023-06-25T14:20:23.623Z,101309.41
2023-06-25T14:22:50.080Z,101315.44
2023-06-25T14:25:16.937Z,101305.09
2023-06-25T14:27:43.469Z,101307.81
2023-06-25T14:30:10.680Z,101307.38
2023-06-25T14:32:37.437Z,101303.28
2023-06-25T14:35:03.968Z,101302.09
2023-06-25T14:37:30.492Z,101297.78
2023-06-25T14:39:57.197Z,101295.03
2023-06-25T14:42:23.991Z,101288.75
2023-06-25T14:44:50.636Z,101291.91
2023-06-25T14:47:17.257Z,101294.25
2023-06-25T14:49:43.820Z,101287.97
2023-06-25T14:52:10.330Z,101287.53
2023-06-25T14:54:36.774Z,101278.94
2023-06-25T14:57:03.457Z,101280.50
2023-06-25T14:59:29.920Z,101282.06
2023-06-25T15:01:56.578Z,101270.69
2023-06-25T15:04:24.015Z,101264.81
2023-06-25T15:06:50.880Z,101259.31
2023-06-25T15:09:17.395Z,101265.56
2023-06-25T15:11:44.420Z,101257.16
2023-06-25T15:14:10.901Z,101252.25
2023-06-25T15:16:38.256Z,101254.56
2023-06-25T15:19:05.180Z,101255.72
2023-06-25T15:21:31.704Z,101249.25
2023-06-25T15:23:58.172Z,101245.31
2023-06-25T15:26:24.642Z,101243.91
2023-06-25T15:28:51.289Z,101240.03
2023-06-25T15:31:18.020Z,101244.28
2023-06-25T15:33:44.500Z,101235.66
2023-06-25T15:36:10.939Z,101235.84
2023-06-25T15:38:37.432Z,101234.81
2023-06-25T15:41:03.869Z,101229.31
2023-06-25T15:43:30.386Z,101225.00
2023-06-25T15:45:57.584Z,101230.00
2023-06-25T15:48:24.717Z,101225.88
2023-06-25T15:50:51.240Z,101224.09
2023-06-25T15:53:17.786Z,101225.22
2023-06-25T15:55:44.771Z,101217.72
2023-06-25T15:58:11.385Z,101219.63
2023-06-25T16:00:38.891Z,101214.91
2023-06-25T16:03:10.640Z,101215.25
2023-06-25T16:05:37.446Z,101214.38
2023-06-25T16:08:04.270Z,101207.31
2023-06-25T16:10:30.796Z,101204.44
2023-06-25T16:12:57.504Z,101206.78
2023-06-25T16:15:24.025Z,101208.06
2023-06-25T16:17:50.555Z,101205.50
2023-06-25T16:20:17.144Z,101199.16
2023-06-25T16:22:43.763Z,101205.38
2023-06-25T16:25:10.297Z,101207.94
2023-06-25T16:27:38.834Z,101206.88
2023-06-25T16:30:06.381Z,101199.00
2023-06-25T16:32:34.547Z,101194.22
2023-06-25T16:35:01.334Z,101193.81
2023-06-25T16:37:27.890Z,101193.22
2023-06-25T16:39:54.833Z,101194.28
2023-06-25T16:42:21.349Z,101188.75
2023-06-25T16:44:47.892Z,101186.94
2023-06-25T16:47:14.486Z,101181.97
2023-06-25T16:49:43.779Z,101189.59
2023-06-25T16:52:10.379Z,101188.38
2023-06-25T16:54:37.910Z,101183.44
2023-06-25T16:57:05.373Z,101186.09
2023-06-25T16:59:32.423Z,101179.00
2023-06-25T17:02:05.974Z,101176.38
2023-06-25T17:04:37.934Z,101187.28
2023-06-25T17:07:05.784Z,101176.63
2023-06-25T17:09:33.422Z,101173.41
2023-06-25T17:12:00.239Z,101178.38
2023-06-25T17:14:26.734Z,101171.88
2023-06-25T17:16:53.661Z,101162.94
2023-06-25T17:19:20.943Z,101168.50
2023-06-25T17:21:47.955Z,101155.34
2023-06-25T17:24:14.645Z,101168.38
2023-06-25T17:26:41.902Z,101157.56
2023-06-25T17:29:08.406Z,101159.28
2023-06-25T17:31:35.407Z,101161.91
2023-06-25T17:34:01.971Z,101162.84
2023-06-25T17:36:28.685Z,101158.09
2023-06-25T17:38:55.885Z,101165.84
2023-06-25T17:41:22.509Z,101159.94
2023-06-25T17:43:49.345Z,101163.38
2023-06-25T17:46:16.178Z,101161.53
2023-06-25T17:48:42.707Z,101155.03
2023-06-25T17:51:09.178Z,101167.88
2023-06-25T17:53:38.929Z,101161.53
2023-06-25T17:56:06.302Z,101154.41
2023-06-25T17:58:33.056Z,101150.38
2023-06-25T18:00:59.696Z,101150.53
2023-06-25T18:03:27.408Z,101161.22
2023-06-25T18:05:54.063Z,101157.81
2023-06-25T18:08:21.447Z,101147.72
2023-06-25T18:10:55.096Z,101152.38
2023-06-25T18:13:22.295Z,101157.03
2023-06-25T18:15:49.308Z,101149.59
2023-06-25T18:18:23.387Z,101147.59
2023-06-25T18:20:49.903Z,101153.63
2023-06-25T18:23:16.452Z,101153.63
2023-06-25T18:25:43.439Z,101146.34
2023-06-25T18:28:09.990Z,101145.59
2023-06-25T18:30:38.403Z,101149.16
2023-06-25T18:33:05.918Z,101135.81
2023-06-25T18:35:32.766Z,101137.00
2023-06-25T18:37:59.319Z,101135.47
2023-06-25T18:40:26.638Z,101141.38
2023-06-25T18:42:53.280Z,101133.59
2023-06-25T18:45:19.997Z,101140.91
2023-06-25T18:47:46.804Z,101127.41
2023-06-25T18:50:15.059Z,101133.00
2023-06-25T18:52:41.903Z,101120.91
2023-06-25T18:55:08.839Z,101129.59
2023-06-25T18:57:35.297Z,101129.28
2023-06-25T19:00:02.142Z,101118.44
2023-06-25T19:02:28.968Z,101124.00
2023-06-25T19:04:55.670Z,101117.78
2023-06-25T19:07:22.194Z,101126.31
2023-06-25T19:09:49.095Z,101130.50
2023-06-25T19:12:15.989Z,101119.81
2023-06-25T19:14:45.836Z,101120.69
2023-06-25T19:17:13.373Z,101124.84
2023-06-25T19:19:39.826Z,101128.13
2023-06-25T19:22:06.427Z,101125.63
2023-06-25T19:24:32.860Z,101131.03
2023-06-25T19:26:59.330Z,101124.06
2023-06-25T19:29:25.786Z,101131.00
2023-06-25T19:31:53.134Z,101119.22
2023-06-25T19:34:19.689Z,101123.69
2023-06-25T19:36:46.209Z,101130.03
2023-06-25T19:39:12.754Z,101126.00
2023-06-25T19:41:39.284Z,101129.22
2023-06-25T19:44:05.912Z,101120.66
2023-06-25T19:46:32.605Z,101135.06
2023-06-25T19:48:59.450Z,101129.59
2023-06-25T19:51:26.090Z,101137.31
2023-06-25T19:53:52.532Z,101139.16
2023-06-25T19:56:19.247Z,101138.81
2023-06-25T19:58:45.725Z,101131.84
2023-06-25T20:01:12.261Z,101143.88
2023-06-25T20:03:38.737Z,101131.00
2023-06-25T20:06:05.202Z,101142.44
2023-06-25T20:08:32.321Z,101140.53
2023-06-25T20:10:58.810Z,101134.31
2023-06-25T20:13:25.334Z,101139.09
2023-06-25T20:15:51.800Z,101144.63
2023-06-25T20:18:18.276Z,101139.19
2023-06-25T20:20:44.715Z,101135.72
2023-06-25T20:23:11.181Z,101133.84
2023-06-25T20:25:37.625Z,101136.63
2023-06-25T20:28:04.141Z,101127.28
2023-06-25T20:30:30.626Z,101131.44
2023-06-25T20:32:57.996Z,101132.66
2023-06-25T20:35:24.622Z,101135.22
2023-06-25T20:37:51.168Z,101133.34
2023-06-25T20:40:17.862Z,101125.56
2023-06-25T20:42:44.392Z,101132.66
2023-06-25T20:45:10.925Z,101130.94
2023-06-25T20:47:40.184Z,101132.75
2023-06-25T20:50:09.169Z,101123.41
2023-06-25T20:52:36.405Z,101130.47
2023-06-25T20:55:03.011Z,101118.81
2023-06-25T20:57:29.793Z,101127.44
2023-06-25T20:59:56.260Z,101122.44
2023-06-25T21:02:22.824Z,101118.53
2023-06-25T21:04:49.400Z,101126.19
2023-06-25T21:07:15.921Z,101122.94
2023-06-25T21:09:42.410Z,101123.97
2023-06-25T21:12:08.944Z,101117.56
2023-06-25T21:14:35.415Z,101114.88
2023-06-25T21:17:01.864Z,101128.59
2023-06-25T21:19:28.514Z,101130.41
2023-06-25T21:21:54.967Z,101127.88
2023-06-25T21:24:21.486Z,101127.53
2023-06-25T21:26:47.991Z,101124.22
2023-06-25T21:29:14.506Z,101116.41
2023-06-25T21:31:40.979Z,101118.22
2023-06-25T21:34:07.474Z,101130.38
2023-06-25T21:36:33.988Z,101124.16
2023-06-25T21:39:02.749Z,101126.72
2023-06-25T21:41:29.232Z,101119.53
2023-06-25T21:43:56.863Z,101123.06
2023-06-25T21:46:23.678Z,101116.81
2023-06-25T21:48:50.219Z,101121.38
2023-06-25T21:51:17.240Z,101121.03
2023-06-25T21:53:44.132Z,101122.97
2023-06-25T21:56:10.596Z,101115.03
2023-06-25T21:58:37.028Z,101119.16
2023-06-25T22:01:03.521Z,101124.81
2023-06-25T22:03:30.070Z,101129.50
2023-06-25T22:05:56.627Z,101110.78
2023-06-25T22:08:23.093Z,101114.72
2023-06-25T22:10:49.573Z,101106.91
2023-06-25T22:13:18.708Z,101106.56
2023-06-25T22:15:46.761Z,101104.63
2023-06-25T22:18:13.635Z,101103.84
2023-06-25T22:20:40.294Z,101101.31
2023-06-25T22:23:06.872Z,101105.44
2023-06-25T22:25:33.301Z,101105.66
2023-06-25T22:27:59.752Z,101104.50
2023-06-25T22:30:26.212Z,101102.75
2023-06-25T22:32:52.808Z,101102.38
2023-06-25T22:35:19.326Z,101097.69
2023-06-25T22:37:45.802Z,101100.44
2023-06-25T22:40:12.305Z,101105.94
2023-06-25T22:42:38.980Z,101096.56
2023-06-25T22:45:06.010Z,101099.28
2023-06-25T22:47:32.622Z,101104.97
2023-06-25T22:49:59.308Z,101104.59
2023-06-25T22:52:25.796Z,101102.84
2023-06-25T22:54:52.552Z,101100.09
2023-06-25T22:57:20.405Z,101100.69
2023-06-25T22:59:46.978Z,101098.94
2023-06-25T23:02:13.434Z,101095.06
2023-06-25T23:04:39.939Z,101087.28
2023-06-25T23:07:06.435Z,101087.66
2023-06-25T23:09:34.492Z,101086.13
2023-06-25T23:12:01.108Z,101093.16
2023-06-25T23:14:27.612Z,101079.69
2023-06-25T23:16:54.062Z,101084.56
2023-06-25T23:19:20.623Z,101077.53
2023-06-25T23:21:47.839Z,101078.72
2023-06-25T23:24:14.706Z,101079.88
2023-06-25T23:26:46.875Z,101075.81
2023-06-25T23:29:17.820Z,101073.47
2023-06-25T23:31:44.704Z,101065.09
2023-06-25T23:34:11.380Z,101068.38
2023-06-25T23:36:37.932Z,101068.19
2023-06-25T23:39:05.004Z,101053.97
2023-06-25T23:41:31.428Z,101056.50
2023-06-25T23:43:57.924Z,101059.25
2023-06-25T23:46:24.515Z,101054.56
2023-06-25T23:48:51.046Z,101044.81
2023-06-25T23:51:17.690Z,101043.03
2023-06-25T23:53:44.282Z,101047.13
2023-06-25T23:56:11.037Z,101046.19
2023-06-25T23:58:37.521Z,101033.31
